Switzerland, South Carolina
Current Conditions -  °F | °C
As of 1:25 AM on Tuesday 21 Oct 2014 (Local Time) from KNBC Reporting Station
Light Rain Light Rain  
Wind Chill: 66°   Ceiling: 2800
Heat Index: 66°   Visibility: 6mi
Dew Point: 64°   Wind: 5mph
Humidity: 93%   Direction: 80°E
Pressure: 29.97"   Gusts: NA
Location:  32.4773°N, 80.9264°W
Report Text: KNBC 210525Z 08004KT 6SM -RA BR BKN028 BKN049 OVC100 19/18 A2997 RMK AO2 T01890178 PNO $
Loading
Personal Weather Stations






























Interactive Weather Map
Tropical Storm Tracking
New forecast layout! Learn more

10-Day Weather Forecast

Advertisements
Track Severe Weather on mobile